sensor_id;sensor_type;location;lat;lon;timestamp;P1;durP1;ratioP1;P2;durP2;ratioP2
21987;SDS011;11158;53.404;-1.510;2022-10-23T00:01:34;5.68;;;3.22;;
21987;SDS011;11158;53.404;-1.510;2022-10-23T00:04:05;5.70;;;2.70;;
21987;SDS011;11158;53.404;-1.510;2022-10-23T00:06:33;5.97;;;2.88;;
21987;SDS011;11158;53.404;-1.510;2022-10-23T00:09:00;6.72;;;3.30;;
21987;SDS011;11158;53.404;-1.510;2022-10-23T00:11:27;7.32;;;3.17;;
21987;SDS011;11158;53.404;-1.510;2022-10-23T00:13:55;5.38;;;3.05;;
21987;SDS011;11158;53.404;-1.510;2022-10-23T00:16:22;8.32;;;3.25;;
21987;SDS011;11158;53.404;-1.510;2022-10-23T00:18:48;6.95;;;3.17;;
21987;SDS011;11158;53.404;-1.510;2022-10-23T00:21:14;6.85;;;2.95;;
21987;SDS011;11158;53.404;-1.510;2022-10-23T00:23:41;5.63;;;3.08;;
21987;SDS011;11158;53.404;-1.510;2022-10-23T00:26:07;5.30;;;2.80;;
21987;SDS011;11158;53.404;-1.510;2022-10-23T00:28:36;7.70;;;3.25;;
21987;SDS011;11158;53.404;-1.510;2022-10-23T00:31:03;6.63;;;3.80;;
21987;SDS011;11158;53.404;-1.510;2022-10-23T00:33:30;6.40;;;3.30;;
21987;SDS011;11158;53.404;-1.510;2022-10-23T00:35:58;5.85;;;3.08;;
21987;SDS011;11158;53.404;-1.510;2022-10-23T00:38:24;8.15;;;3.08;;
21987;SDS011;11158;53.404;-1.510;2022-10-23T00:40:50;7.60;;;3.13;;
21987;SDS011;11158;53.404;-1.510;2022-10-23T00:43:16;5.75;;;3.20;;
21987;SDS011;11158;53.404;-1.510;2022-10-23T00:45:46;5.63;;;3.50;;
21987;SDS011;11158;53.404;-1.510;2022-10-23T00:48:12;10.52;;;3.78;;
21987;SDS011;11158;53.404;-1.510;2022-10-23T00:50:39;5.53;;;3.40;;
21987;SDS011;11158;53.404;-1.510;2022-10-23T00:53:06;13.43;;;8.25;;
21987;SDS011;11158;53.404;-1.510;2022-10-23T00:55:32;7.63;;;5.03;;
21987;SDS011;11158;53.404;-1.510;2022-10-23T00:58:00;7.65;;;4.50;;
21987;SDS011;11158;53.404;-1.510;2022-10-23T01:00:27;7.93;;;4.10;;
21987;SDS011;11158;53.404;-1.510;2022-10-23T01:02:57;9.90;;;4.20;;
21987;SDS011;11158;53.404;-1.510;2022-10-23T01:05:24;6.90;;;3.95;;
21987;SDS011;11158;53.404;-1.510;2022-10-23T01:07:58;8.77;;;4.35;;
21987;SDS011;11158;53.404;-1.510;2022-10-23T01:13:24;6.47;;;3.78;;
21987;SDS011;11158;53.404;-1.510;2022-10-23T01:16:09;12.25;;;4.97;;
21987;SDS011;11158;53.404;-1.510;2022-10-23T01:19:25;11.35;;;6.40;;
21987;SDS011;11158;53.404;-1.510;2022-10-23T01:21:54;9.18;;;5.85;;
21987;SDS011;11158;53.404;-1.510;2022-10-23T01:27:18;10.13;;;6.22;;
21987;SDS011;11158;53.404;-1.510;2022-10-23T01:32:41;7.68;;;5.38;;
21987;SDS011;11158;53.404;-1.510;2022-10-23T01:35:18;10.75;;;7.03;;
21987;SDS011;11158;53.404;-1.510;2022-10-23T01:37:49;13.82;;;8.38;;
21987;SDS011;11158;53.404;-1.510;2022-10-23T01:40:23;9.63;;;6.28;;
21987;SDS011;11158;53.404;-1.510;2022-10-23T01:42:57;11.18;;;6.05;;
21987;SDS011;11158;53.404;-1.510;2022-10-23T01:45:36;7.93;;;4.65;;
21987;SDS011;11158;53.404;-1.510;2022-10-23T01:48:05;9.48;;;5.72;;
21987;SDS011;11158;53.404;-1.510;2022-10-23T01:50:35;5.70;;;4.65;;
21987;SDS011;11158;53.404;-1.510;2022-10-23T01:53:04;8.55;;;4.85;;
21987;SDS011;11158;53.404;-1.510;2022-10-23T01:55:30;9.20;;;4.95;;
21987;SDS011;11158;53.404;-1.510;2022-10-23T01:57:57;8.88;;;4.82;;
21987;SDS011;11158;53.404;-1.510;2022-10-23T02:00:25;7.78;;;4.72;;
21987;SDS011;11158;53.404;-1.510;2022-10-23T02:02:51;8.90;;;5.22;;
21987;SDS011;11158;53.404;-1.510;2022-10-23T02:05:19;9.40;;;5.35;;
21987;SDS011;11158;53.404;-1.510;2022-10-23T02:07:48;10.00;;;4.80;;
21987;SDS011;11158;53.404;-1.510;2022-10-23T02:10:15;9.90;;;5.40;;
21987;SDS011;11158;53.404;-1.510;2022-10-23T02:12:45;10.05;;;5.60;;
21987;SDS011;11158;53.404;-1.510;2022-10-23T02:24:02;7.80;;;5.65;;
21987;SDS011;11158;53.404;-1.510;2022-10-23T02:26:13;12.95;;;6.05;;
21987;SDS011;11158;53.404;-1.510;2022-10-23T02:28:42;9.82;;;5.93;;
21987;SDS011;11158;53.404;-1.510;2022-10-23T02:31:15;9.82;;;5.60;;
21987;SDS011;11158;53.404;-1.510;2022-10-23T02:33:44;7.97;;;6.25;;
21987;SDS011;11158;53.404;-1.510;2022-10-23T02:36:11;10.57;;;6.55;;
21987;SDS011;11158;53.404;-1.510;2022-10-23T02:38:39;10.48;;;6.13;;
21987;SDS011;11158;53.404;-1.510;2022-10-23T02:43:53;9.20;;;6.47;;
21987;SDS011;11158;53.404;-1.510;2022-10-23T02:46:29;13.40;;;6.28;;
21987;SDS011;11158;53.404;-1.510;2022-10-23T02:52:09;10.82;;;5.95;;
21987;SDS011;11158;53.404;-1.510;2022-10-23T03:00:17;10.18;;;5.95;;
21987;SDS011;11158;53.404;-1.510;2022-10-23T03:05:22;7.03;;;4.88;;
21987;SDS011;11158;53.404;-1.510;2022-10-23T03:07:51;5.35;;;4.45;;
21987;SDS011;11158;53.404;-1.510;2022-10-23T03:10:17;7.63;;;5.15;;
21987;SDS011;11158;53.404;-1.510;2022-10-23T03:12:44;10.50;;;5.90;;
21987;SDS011;11158;53.404;-1.510;2022-10-23T03:15:11;7.88;;;5.43;;
21987;SDS011;11158;53.404;-1.510;2022-10-23T03:17:37;8.68;;;5.75;;
21987;SDS011;11158;53.404;-1.510;2022-10-23T03:20:04;8.63;;;5.28;;
21987;SDS011;11158;53.404;-1.510;2022-10-23T03:22:30;9.95;;;5.55;;
21987;SDS011;11158;53.404;-1.510;2022-10-23T03:24:56;8.52;;;5.15;;
21987;SDS011;11158;53.404;-1.510;2022-10-23T03:27:22;9.65;;;5.22;;
21987;SDS011;11158;53.404;-1.510;2022-10-23T03:29:48;6.93;;;4.68;;
21987;SDS011;11158;53.404;-1.510;2022-10-23T03:32:13;8.57;;;4.47;;
21987;SDS011;11158;53.404;-1.510;2022-10-23T03:34:39;10.68;;;5.40;;
21987;SDS011;11158;53.404;-1.510;2022-10-23T03:37:05;10.35;;;4.60;;
21987;SDS011;11158;53.404;-1.510;2022-10-23T03:39:31;12.38;;;5.97;;
21987;SDS011;11158;53.404;-1.510;2022-10-23T03:41:56;13.68;;;5.88;;
21987;SDS011;11158;53.404;-1.510;2022-10-23T03:44:22;11.50;;;5.35;;
21987;SDS011;11158;53.404;-1.510;2022-10-23T03:46:47;9.38;;;6.05;;
21987;SDS011;11158;53.404;-1.510;2022-10-23T03:49:13;13.05;;;6.15;;
21987;SDS011;11158;53.404;-1.510;2022-10-23T03:51:41;10.27;;;6.22;;
21987;SDS011;11158;53.404;-1.510;2022-10-23T03:54:08;16.15;;;6.07;;
21987;SDS011;11158;53.404;-1.510;2022-10-23T03:56:34;11.23;;;6.45;;
21987;SDS011;11158;53.404;-1.510;2022-10-23T03:58:59;11.50;;;6.10;;
21987;SDS011;11158;53.404;-1.510;2022-10-23T04:01:25;10.50;;;6.25;;
21987;SDS011;11158;53.404;-1.510;2022-10-23T04:03:51;11.55;;;6.15;;
21987;SDS011;11158;53.404;-1.510;2022-10-23T04:06:16;11.05;;;6.13;;
21987;SDS011;11158;53.404;-1.510;2022-10-23T04:08:42;12.95;;;6.30;;
21987;SDS011;11158;53.404;-1.510;2022-10-23T04:11:09;20.08;;;6.75;;
21987;SDS011;11158;53.404;-1.510;2022-10-23T04:13:35;9.25;;;5.82;;
21987;SDS011;11158;53.404;-1.510;2022-10-23T04:16:01;12.00;;;5.75;;
21987;SDS011;11158;53.404;-1.510;2022-10-23T04:18:27;10.50;;;6.18;;
21987;SDS011;11158;53.404;-1.510;2022-10-23T04:20:53;13.65;;;6.68;;
21987;SDS011;11158;53.404;-1.510;2022-10-23T04:23:18;11.02;;;6.90;;
21987;SDS011;11158;53.404;-1.510;2022-10-23T04:25:44;10.63;;;6.32;;
21987;SDS011;11158;53.404;-1.510;2022-10-23T04:28:10;14.13;;;7.25;;
21987;SDS011;11158;53.404;-1.510;2022-10-23T04:30:36;14.55;;;7.90;;
21987;SDS011;11158;53.404;-1.510;2022-10-23T04:33:02;13.20;;;7.45;;
21987;SDS011;11158;53.404;-1.510;2022-10-23T04:35:28;13.88;;;8.60;;
21987;SDS011;11158;53.404;-1.510;2022-10-23T04:37:53;16.77;;;7.75;;
21987;SDS011;11158;53.404;-1.510;2022-10-23T04:40:19;17.30;;;7.35;;
21987;SDS011;11158;53.404;-1.510;2022-10-23T04:42:44;13.65;;;7.78;;
21987;SDS011;11158;53.404;-1.510;2022-10-23T04:45:10;13.65;;;8.20;;
21987;SDS011;11158;53.404;-1.510;2022-10-23T04:47:36;16.83;;;9.13;;
21987;SDS011;11158;53.404;-1.510;2022-10-23T04:50:02;14.52;;;9.10;;
21987;SDS011;11158;53.404;-1.510;2022-10-23T04:52:27;17.30;;;8.35;;
21987;SDS011;11158;53.404;-1.510;2022-10-23T04:54:53;22.05;;;9.88;;
21987;SDS011;11158;53.404;-1.510;2022-10-23T04:57:18;18.67;;;9.18;;
21987;SDS011;11158;53.404;-1.510;2022-10-23T04:59:44;16.15;;;10.25;;
21987;SDS011;11158;53.404;-1.510;2022-10-23T05:02:10;22.08;;;10.50;;
21987;SDS011;11158;53.404;-1.510;2022-10-23T05:04:35;18.48;;;9.80;;
21987;SDS011;11158;53.404;-1.510;2022-10-23T05:07:01;18.15;;;9.90;;
21987;SDS011;11158;53.404;-1.510;2022-10-23T05:09:26;22.35;;;10.90;;
21987;SDS011;11158;53.404;-1.510;2022-10-23T05:11:52;20.70;;;12.00;;
21987;SDS011;11158;53.404;-1.510;2022-10-23T05:14:17;19.20;;;11.70;;
21987;SDS011;11158;53.404;-1.510;2022-10-23T05:16:45;24.73;;;13.40;;
21987;SDS011;11158;53.404;-1.510;2022-10-23T05:19:20;28.98;;;13.55;;
21987;SDS011;11158;53.404;-1.510;2022-10-23T05:21:48;29.20;;;14.13;;
21987;SDS011;11158;53.404;-1.510;2022-10-23T05:24:23;24.20;;;13.43;;
21987;SDS011;11158;53.404;-1.510;2022-10-23T05:26:49;20.52;;;11.30;;
21987;SDS011;11158;53.404;-1.510;2022-10-23T05:29:21;22.50;;;10.80;;
21987;SDS011;11158;53.404;-1.510;2022-10-23T05:31:47;21.63;;;11.52;;
21987;SDS011;11158;53.404;-1.510;2022-10-23T05:34:18;23.60;;;11.52;;
21987;SDS011;11158;53.404;-1.510;2022-10-23T05:36:47;23.70;;;12.40;;
21987;SDS011;11158;53.404;-1.510;2022-10-23T05:39:13;19.38;;;11.65;;
21987;SDS011;11158;53.404;-1.510;2022-10-23T05:41:39;29.00;;;13.38;;
21987;SDS011;11158;53.404;-1.510;2022-10-23T05:44:05;28.02;;;16.20;;
21987;SDS011;11158;53.404;-1.510;2022-10-23T05:46:31;31.77;;;14.82;;
21987;SDS011;11158;53.404;-1.510;2022-10-23T05:48:56;31.00;;;15.13;;
21987;SDS011;11158;53.404;-1.510;2022-10-23T05:51:22;30.77;;;15.75;;
21987;SDS011;11158;53.404;-1.510;2022-10-23T05:53:49;30.23;;;15.98;;
21987;SDS011;11158;53.404;-1.510;2022-10-23T05:56:15;26.38;;;14.55;;
21987;SDS011;11158;53.404;-1.510;2022-10-23T05:58:41;35.45;;;18.45;;
21987;SDS011;11158;53.404;-1.510;2022-10-23T06:01:07;35.55;;;17.38;;
21987;SDS011;11158;53.404;-1.510;2022-10-23T06:03:35;48.33;;;22.40;;
21987;SDS011;11158;53.404;-1.510;2022-10-23T06:06:02;49.72;;;22.42;;
21987;SDS011;11158;53.404;-1.510;2022-10-23T06:08:28;50.50;;;24.10;;
21987;SDS011;11158;53.404;-1.510;2022-10-23T06:10:54;60.85;;;25.10;;
21987;SDS011;11158;53.404;-1.510;2022-10-23T06:13:20;49.13;;;20.73;;
21987;SDS011;11158;53.404;-1.510;2022-10-23T06:15:47;40.33;;;17.95;;
21987;SDS011;11158;53.404;-1.510;2022-10-23T06:18:12;43.88;;;20.02;;
21987;SDS011;11158;53.404;-1.510;2022-10-23T06:20:39;45.53;;;20.50;;
21987;SDS011;11158;53.404;-1.510;2022-10-23T06:23:05;94.57;;;25.33;;
21987;SDS011;11158;53.404;-1.510;2022-10-23T06:25:31;49.88;;;21.60;;
21987;SDS011;11158;53.404;-1.510;2022-10-23T06:27:57;47.53;;;22.15;;
21987;SDS011;11158;53.404;-1.510;2022-10-23T06:30:22;51.88;;;22.20;;
21987;SDS011;11158;53.404;-1.510;2022-10-23T06:32:49;47.90;;;20.08;;
21987;SDS011;11158;53.404;-1.510;2022-10-23T06:35:15;51.25;;;23.00;;
21987;SDS011;11158;53.404;-1.510;2022-10-23T06:37:41;49.75;;;23.98;;
21987;SDS011;11158;53.404;-1.510;2022-10-23T06:40:07;50.15;;;23.48;;
21987;SDS011;11158;53.404;-1.510;2022-10-23T06:42:34;47.45;;;21.83;;
21987;SDS011;11158;53.404;-1.510;2022-10-23T06:45:00;58.05;;;24.52;;
21987;SDS011;11158;53.404;-1.510;2022-10-23T06:47:25;54.63;;;23.55;;
21987;SDS011;11158;53.404;-1.510;2022-10-23T06:49:51;47.78;;;21.38;;
21987;SDS011;11158;53.404;-1.510;2022-10-23T06:52:17;56.75;;;22.77;;
21987;SDS011;11158;53.404;-1.510;2022-10-23T06:54:42;57.97;;;23.92;;
21987;SDS011;11158;53.404;-1.510;2022-10-23T06:57:08;61.05;;;23.50;;
21987;SDS011;11158;53.404;-1.510;2022-10-23T06:59:33;60.90;;;23.95;;
21987;SDS011;11158;53.404;-1.510;2022-10-23T07:01:59;61.88;;;25.23;;
21987;SDS011;11158;53.404;-1.510;2022-10-23T07:04:25;68.05;;;26.17;;
21987;SDS011;11158;53.404;-1.510;2022-10-23T07:06:53;73.53;;;27.30;;
21987;SDS011;11158;53.404;-1.510;2022-10-23T07:09:20;66.32;;;26.63;;
21987;SDS011;11158;53.404;-1.510;2022-10-23T07:11:46;77.07;;;28.83;;
21987;SDS011;11158;53.404;-1.510;2022-10-23T07:14:12;65.07;;;28.30;;
21987;SDS011;11158;53.404;-1.510;2022-10-23T07:16:37;65.63;;;27.40;;
21987;SDS011;11158;53.404;-1.510;2022-10-23T07:19:03;71.00;;;26.52;;
21987;SDS011;11158;53.404;-1.510;2022-10-23T07:21:32;67.25;;;28.48;;
21987;SDS011;11158;53.404;-1.510;2022-10-23T07:24:01;74.32;;;26.63;;
21987;SDS011;11158;53.404;-1.510;2022-10-23T07:26:27;66.07;;;27.35;;
21987;SDS011;11158;53.404;-1.510;2022-10-23T07:28:53;69.00;;;29.08;;
21987;SDS011;11158;53.404;-1.510;2022-10-23T07:31:22;72.45;;;27.08;;
21987;SDS011;11158;53.404;-1.510;2022-10-23T07:33:50;68.85;;;26.25;;
21987;SDS011;11158;53.404;-1.510;2022-10-23T07:36:16;56.05;;;23.85;;
21987;SDS011;11158;53.404;-1.510;2022-10-23T07:38:43;61.95;;;24.92;;
21987;SDS011;11158;53.404;-1.510;2022-10-23T07:41:08;71.15;;;26.15;;
21987;SDS011;11158;53.404;-1.510;2022-10-23T07:43:34;71.78;;;25.20;;
21987;SDS011;11158;53.404;-1.510;2022-10-23T07:46:00;107.93;;;26.83;;
21987;SDS011;11158;53.404;-1.510;2022-10-23T07:48:27;64.03;;;23.40;;
21987;SDS011;11158;53.404;-1.510;2022-10-23T07:50:57;50.55;;;20.55;;
21987;SDS011;11158;53.404;-1.510;2022-10-23T07:53:25;68.32;;;22.65;;
21987;SDS011;11158;53.404;-1.510;2022-10-23T07:55:57;54.10;;;21.30;;
21987;SDS011;11158;53.404;-1.510;2022-10-23T07:58:25;60.90;;;22.08;;
21987;SDS011;11158;53.404;-1.510;2022-10-23T08:00:56;60.47;;;21.73;;
21987;SDS011;11158;53.404;-1.510;2022-10-23T08:03:27;61.08;;;21.02;;
21987;SDS011;11158;53.404;-1.510;2022-10-23T08:05:55;58.22;;;21.00;;
21987;SDS011;11158;53.404;-1.510;2022-10-23T08:08:22;48.75;;;20.73;;
21987;SDS011;11158;53.404;-1.510;2022-10-23T08:10:49;48.30;;;20.55;;
21987;SDS011;11158;53.404;-1.510;2022-10-23T08:13:15;46.08;;;18.92;;
21987;SDS011;11158;53.404;-1.510;2022-10-23T08:15:42;35.15;;;15.93;;
21987;SDS011;11158;53.404;-1.510;2022-10-23T08:18:08;41.10;;;16.58;;
21987;SDS011;11158;53.404;-1.510;2022-10-23T08:20:41;43.63;;;16.83;;
21987;SDS011;11158;53.404;-1.510;2022-10-23T08:23:08;38.92;;;16.75;;
21987;SDS011;11158;53.404;-1.510;2022-10-23T08:25:38;44.38;;;18.90;;
21987;SDS011;11158;53.404;-1.510;2022-10-23T08:28:05;40.33;;;17.60;;
21987;SDS011;11158;53.404;-1.510;2022-10-23T08:30:31;44.75;;;19.60;;
21987;SDS011;11158;53.404;-1.510;2022-10-23T08:32:57;39.65;;;18.40;;
21987;SDS011;11158;53.404;-1.510;2022-10-23T08:35:23;40.25;;;19.08;;
21987;SDS011;11158;53.404;-1.510;2022-10-23T08:37:49;36.55;;;19.33;;
21987;SDS011;11158;53.404;-1.510;2022-10-23T08:40:15;39.75;;;21.25;;
21987;SDS011;11158;53.404;-1.510;2022-10-23T08:42:43;38.42;;;20.25;;
21987;SDS011;11158;53.404;-1.510;2022-10-23T08:48:17;41.78;;;20.27;;
21987;SDS011;11158;53.404;-1.510;2022-10-23T08:50:46;41.17;;;20.42;;
21987;SDS011;11158;53.404;-1.510;2022-10-23T08:55:46;41.00;;;18.95;;
21987;SDS011;11158;53.404;-1.510;2022-10-23T08:58:37;43.45;;;20.73;;
21987;SDS011;11158;53.404;-1.510;2022-10-23T09:01:26;39.63;;;19.95;;
21987;SDS011;11158;53.404;-1.510;2022-10-23T09:04:13;40.22;;;20.83;;
21987;SDS011;11158;53.404;-1.510;2022-10-23T09:06:42;37.80;;;19.85;;
21987;SDS011;11158;53.404;-1.510;2022-10-23T09:12:16;51.33;;;21.27;;
21987;SDS011;11158;53.404;-1.510;2022-10-23T09:17:38;44.83;;;21.77;;
21987;SDS011;11158;53.404;-1.510;2022-10-23T09:23:23;36.20;;;19.95;;
21987;SDS011;11158;53.404;-1.510;2022-10-23T09:25:49;40.38;;;19.23;;
21987;SDS011;11158;53.404;-1.510;2022-10-23T09:28:29;32.65;;;18.88;;
21987;SDS011;11158;53.404;-1.510;2022-10-23T09:31:06;38.05;;;20.52;;
21987;SDS011;11158;53.404;-1.510;2022-10-23T09:33:33;35.67;;;19.33;;
21987;SDS011;11158;53.404;-1.510;2022-10-23T09:38:35;33.63;;;19.90;;
21987;SDS011;11158;53.404;-1.510;2022-10-23T09:43:45;31.05;;;18.08;;
21987;SDS011;11158;53.404;-1.510;2022-10-23T09:46:10;32.28;;;19.92;;
21987;SDS011;11158;53.404;-1.510;2022-10-23T09:48:37;32.35;;;18.33;;
21987;SDS011;11158;53.404;-1.510;2022-10-23T09:51:37;26.05;;;16.33;;
21987;SDS011;11158;53.404;-1.510;2022-10-23T09:53:56;28.58;;;16.40;;
21987;SDS011;11158;53.404;-1.510;2022-10-23T09:56:25;24.48;;;16.40;;
21987;SDS011;11158;53.404;-1.510;2022-10-23T09:58:55;23.25;;;17.27;;
21987;SDS011;11158;53.404;-1.510;2022-10-23T10:01:48;29.83;;;17.27;;
21987;SDS011;11158;53.404;-1.510;2022-10-23T10:04:16;38.33;;;19.95;;
21987;SDS011;11158;53.404;-1.510;2022-10-23T10:06:42;30.20;;;21.50;;
21987;SDS011;11158;53.404;-1.510;2022-10-23T10:09:11;31.67;;;19.08;;
21987;SDS011;11158;53.404;-1.510;2022-10-23T10:27:43;16.45;;;11.60;;
21987;SDS011;11158;53.404;-1.510;2022-10-23T10:30:32;17.60;;;11.17;;
21987;SDS011;11158;53.404;-1.510;2022-10-23T10:33:08;10.45;;;9.27;;
21987;SDS011;11158;53.404;-1.510;2022-10-23T10:35:51;15.60;;;10.40;;
21987;SDS011;11158;53.404;-1.510;2022-10-23T10:46:53;8.63;;;7.38;;
21987;SDS011;11158;53.404;-1.510;2022-10-23T10:57:50;7.22;;;5.25;;
21987;SDS011;11158;53.404;-1.510;2022-10-23T11:00:22;4.35;;;4.03;;
21987;SDS011;11158;53.404;-1.510;2022-10-23T11:02:49;5.97;;;4.63;;
21987;SDS011;11158;53.404;-1.510;2022-10-23T11:05:28;5.53;;;5.03;;
21987;SDS011;11158;53.404;-1.510;2022-10-23T11:10:36;6.78;;;6.10;;
21987;SDS011;11158;53.404;-1.510;2022-10-23T11:13:20;7.40;;;6.75;;
21987;SDS011;11158;53.404;-1.510;2022-10-23T11:15:50;7.25;;;6.65;;
21987;SDS011;11158;53.404;-1.510;2022-10-23T11:18:21;7.65;;;6.95;;
21987;SDS011;11158;53.404;-1.510;2022-10-23T11:35:02;10.07;;;9.07;;
21987;SDS011;11158;53.404;-1.510;2022-10-23T11:37:32;10.52;;;9.57;;
21987;SDS011;11158;53.404;-1.510;2022-10-23T11:40:11;11.75;;;9.75;;
21987;SDS011;11158;53.404;-1.510;2022-10-23T11:42:49;10.40;;;9.10;;
21987;SDS011;11158;53.404;-1.510;2022-10-23T11:48:03;9.55;;;8.75;;
21987;SDS011;11158;53.404;-1.510;2022-10-23T11:50:48;9.07;;;8.27;;
21987;SDS011;11158;53.404;-1.510;2022-10-23T11:53:23;8.73;;;7.93;;
21987;SDS011;11158;53.404;-1.510;2022-10-23T11:58:40;8.57;;;7.78;;
21987;SDS011;11158;53.404;-1.510;2022-10-23T12:04:19;9.70;;;7.70;;
21987;SDS011;11158;53.404;-1.510;2022-10-23T12:06:48;7.68;;;6.97;;
21987;SDS011;11158;53.404;-1.510;2022-10-23T12:09:22;8.85;;;7.82;;
21987;SDS011;11158;53.404;-1.510;2022-10-23T12:14:31;7.40;;;6.80;;
21987;SDS011;11158;53.404;-1.510;2022-10-23T12:17:22;9.27;;;6.85;;
21987;SDS011;11158;53.404;-1.510;2022-10-23T12:20:00;7.60;;;5.65;;
21987;SDS011;11158;53.404;-1.510;2022-10-23T12:22:38;5.93;;;5.40;;
21987;SDS011;11158;53.404;-1.510;2022-10-23T12:25:13;5.80;;;5.30;;
21987;SDS011;11158;53.404;-1.510;2022-10-23T12:30:59;5.20;;;4.70;;
21987;SDS011;11158;53.404;-1.510;2022-10-23T12:42:41;4.32;;;3.88;;
21987;SDS011;11158;53.404;-1.510;2022-10-23T12:45:01;4.18;;;3.67;;
21987;SDS011;11158;53.404;-1.510;2022-10-23T12:47:34;3.92;;;3.38;;
21987;SDS011;11158;53.404;-1.510;2022-10-23T12:50:01;3.40;;;3.10;;
21987;SDS011;11158;53.404;-1.510;2022-10-23T12:52:27;3.28;;;2.58;;
21987;SDS011;11158;53.404;-1.510;2022-10-23T12:54:53;3.20;;;2.85;;
21987;SDS011;11158;53.404;-1.510;2022-10-23T13:00:18;4.13;;;2.28;;
21987;SDS011;11158;53.404;-1.510;2022-10-23T13:05:24;3.30;;;2.33;;
21987;SDS011;11158;53.404;-1.510;2022-10-23T13:07:51;3.42;;;2.42;;
21987;SDS011;11158;53.404;-1.510;2022-10-23T13:10:17;3.03;;;2.33;;
21987;SDS011;11158;53.404;-1.510;2022-10-23T13:12:49;2.80;;;2.47;;
21987;SDS011;11158;53.404;-1.510;2022-10-23T13:15:24;3.65;;;3.10;;
21987;SDS011;11158;53.404;-1.510;2022-10-23T13:18:01;2.65;;;2.28;;
21987;SDS011;11158;53.404;-1.510;2022-10-23T13:20:32;2.55;;;2.30;;
21987;SDS011;11158;53.404;-1.510;2022-10-23T13:23:07;2.95;;;2.35;;
21987;SDS011;11158;53.404;-1.510;2022-10-23T13:25:37;3.70;;;2.28;;
21987;SDS011;11158;53.404;-1.510;2022-10-23T13:28:08;3.22;;;2.63;;
21987;SDS011;11158;53.404;-1.510;2022-10-23T13:30:43;2.88;;;1.90;;
21987;SDS011;11158;53.404;-1.510;2022-10-23T13:35:58;3.15;;;1.90;;
21987;SDS011;11158;53.404;-1.510;2022-10-23T13:38:28;2.92;;;1.83;;
21987;SDS011;11158;53.404;-1.510;2022-10-23T13:40:55;2.42;;;1.98;;
21987;SDS011;11158;53.404;-1.510;2022-10-23T13:43:23;4.95;;;2.08;;
21987;SDS011;11158;53.404;-1.510;2022-10-23T13:45:50;3.10;;;1.80;;
21987;SDS011;11158;53.404;-1.510;2022-10-23T13:48:16;2.65;;;1.70;;
21987;SDS011;11158;53.404;-1.510;2022-10-23T13:50:43;5.18;;;1.92;;
21987;SDS011;11158;53.404;-1.510;2022-10-23T13:53:10;2.83;;;1.80;;
21987;SDS011;11158;53.404;-1.510;2022-10-23T13:55:37;2.60;;;1.65;;
21987;SDS011;11158;53.404;-1.510;2022-10-23T13:58:08;3.25;;;1.90;;
21987;SDS011;11158;53.404;-1.510;2022-10-23T14:00:35;3.03;;;2.10;;
21987;SDS011;11158;53.404;-1.510;2022-10-23T14:03:02;5.05;;;2.10;;
21987;SDS011;11158;53.404;-1.510;2022-10-23T14:05:29;2.72;;;1.75;;
21987;SDS011;11158;53.404;-1.510;2022-10-23T14:07:55;4.95;;;3.97;;
21987;SDS011;11158;53.404;-1.510;2022-10-23T14:10:21;1.77;;;1.50;;
21987;SDS011;11158;53.404;-1.510;2022-10-23T14:12:47;3.60;;;1.70;;
21987;SDS011;11158;53.404;-1.510;2022-10-23T14:15:18;3.40;;;2.10;;
21987;SDS011;11158;53.404;-1.510;2022-10-23T14:17:44;6.07;;;2.17;;
21987;SDS011;11158;53.404;-1.510;2022-10-23T14:20:10;3.65;;;2.33;;
21987;SDS011;11158;53.404;-1.510;2022-10-23T14:22:36;5.07;;;3.35;;
21987;SDS011;11158;53.404;-1.510;2022-10-23T14:25:02;3.63;;;2.30;;
21987;SDS011;11158;53.404;-1.510;2022-10-23T14:27:29;4.40;;;3.67;;
21987;SDS011;11158;53.404;-1.510;2022-10-23T14:29:55;3.90;;;3.33;;
21987;SDS011;11158;53.404;-1.510;2022-10-23T14:32:22;11.75;;;8.85;;
21987;SDS011;11158;53.404;-1.510;2022-10-23T14:34:52;4.65;;;3.70;;
21987;SDS011;11158;53.404;-1.510;2022-10-23T14:37:19;17.25;;;12.18;;
21987;SDS011;11158;53.404;-1.510;2022-10-23T14:39:45;10.82;;;6.30;;
21987;SDS011;11158;53.404;-1.510;2022-10-23T14:42:12;15.85;;;10.80;;
21987;SDS011;11158;53.404;-1.510;2022-10-23T14:44:38;11.02;;;8.68;;
21987;SDS011;11158;53.404;-1.510;2022-10-23T14:47:04;5.20;;;3.25;;
21987;SDS011;11158;53.404;-1.510;2022-10-23T14:49:29;5.25;;;3.17;;
21987;SDS011;11158;53.404;-1.510;2022-10-23T14:51:55;3.53;;;3.10;;
21987;SDS011;11158;53.404;-1.510;2022-10-23T14:54:21;5.63;;;4.18;;
21987;SDS011;11158;53.404;-1.510;2022-10-23T14:56:47;3.65;;;2.70;;
21987;SDS011;11158;53.404;-1.510;2022-10-23T14:59:13;3.08;;;2.40;;
21987;SDS011;11158;53.404;-1.510;2022-10-23T15:01:43;2.67;;;2.15;;
21987;SDS011;11158;53.404;-1.510;2022-10-23T15:04:09;2.55;;;2.00;;
21987;SDS011;11158;53.404;-1.510;2022-10-23T15:06:36;2.97;;;2.10;;
21987;SDS011;11158;53.404;-1.510;2022-10-23T15:09:02;2.53;;;2.00;;
21987;SDS011;11158;53.404;-1.510;2022-10-23T15:11:29;3.17;;;1.83;;
21987;SDS011;11158;53.404;-1.510;2022-10-23T15:13:57;3.95;;;2.20;;
21987;SDS011;11158;53.404;-1.510;2022-10-23T15:16:24;5.30;;;2.90;;
21987;SDS011;11158;53.404;-1.510;2022-10-23T15:18:50;3.50;;;2.45;;
21987;SDS011;11158;53.404;-1.510;2022-10-23T15:21:16;2.75;;;2.20;;
21987;SDS011;11158;53.404;-1.510;2022-10-23T15:23:42;3.47;;;2.10;;
21987;SDS011;11158;53.404;-1.510;2022-10-23T15:26:27;3.97;;;2.50;;
21987;SDS011;11158;53.404;-1.510;2022-10-23T15:28:54;3.53;;;2.33;;
21987;SDS011;11158;53.404;-1.510;2022-10-23T15:31:38;2.53;;;2.03;;
21987;SDS011;11158;53.404;-1.510;2022-10-23T15:34:06;3.72;;;2.33;;
21987;SDS011;11158;53.404;-1.510;2022-10-23T15:36:34;5.30;;;2.47;;
21987;SDS011;11158;53.404;-1.510;2022-10-23T15:39:00;3.63;;;2.60;;
21987;SDS011;11158;53.404;-1.510;2022-10-23T15:41:27;2.70;;;1.98;;
21987;SDS011;11158;53.404;-1.510;2022-10-23T15:43:56;4.30;;;2.55;;
21987;SDS011;11158;53.404;-1.510;2022-10-23T15:46:23;2.53;;;2.13;;
21987;SDS011;11158;53.404;-1.510;2022-10-23T15:48:49;3.80;;;2.05;;
21987;SDS011;11158;53.404;-1.510;2022-10-23T15:51:14;1.92;;;1.73;;
21987;SDS011;11158;53.404;-1.510;2022-10-23T15:53:40;3.80;;;1.90;;
21987;SDS011;11158;53.404;-1.510;2022-10-23T15:56:06;4.05;;;1.73;;
21987;SDS011;11158;53.404;-1.510;2022-10-23T15:58:32;3.20;;;2.00;;
21987;SDS011;11158;53.404;-1.510;2022-10-23T16:01:00;2.70;;;1.85;;
21987;SDS011;11158;53.404;-1.510;2022-10-23T16:03:30;3.80;;;2.45;;
21987;SDS011;11158;53.404;-1.510;2022-10-23T16:06:08;4.55;;;2.50;;
21987;SDS011;11158;53.404;-1.510;2022-10-23T16:08:36;4.32;;;2.67;;
21987;SDS011;11158;53.404;-1.510;2022-10-23T16:11:02;4.43;;;2.72;;
21987;SDS011;11158;53.404;-1.510;2022-10-23T16:13:29;5.13;;;3.95;;
21987;SDS011;11158;53.404;-1.510;2022-10-23T16:15:54;3.72;;;2.80;;
21987;SDS011;11158;53.404;-1.510;2022-10-23T16:18:21;3.00;;;2.70;;
21987;SDS011;11158;53.404;-1.510;2022-10-23T16:20:47;4.18;;;2.50;;
21987;SDS011;11158;53.404;-1.510;2022-10-23T16:23:15;5.03;;;2.92;;
21987;SDS011;11158;53.404;-1.510;2022-10-23T16:25:41;5.80;;;3.90;;
21987;SDS011;11158;53.404;-1.510;2022-10-23T16:28:08;3.70;;;2.50;;
21987;SDS011;11158;53.404;-1.510;2022-10-23T16:30:38;4.20;;;3.15;;
21987;SDS011;11158;53.404;-1.510;2022-10-23T16:33:05;4.03;;;3.15;;
21987;SDS011;11158;53.404;-1.510;2022-10-23T16:35:30;5.38;;;4.45;;
21987;SDS011;11158;53.404;-1.510;2022-10-23T16:37:56;11.40;;;6.40;;
21987;SDS011;11158;53.404;-1.510;2022-10-23T16:40:22;6.18;;;5.00;;
21987;SDS011;11158;53.404;-1.510;2022-10-23T16:42:49;8.65;;;6.75;;
21987;SDS011;11158;53.404;-1.510;2022-10-23T16:45:14;8.95;;;6.90;;